Deshler, NE (68340)

2:43 PM CDT on September 01, 2015 (GMT -0500)
Hebron Municipal | | Change Station
CLOSE
Current Station
Airport
Location: Hebron,
Elevation: 1467 ft
Nearby Weather Stations

Elev 1467 ft 40.15 °N, 97.59 °W | Updated 8 minutes ago

Clear
Clear
92 °F
Feels Like 92 °F
N
18
Wind Variable Wind from South
Gusts 23 mph

Today
High -- | Low -- °F
--% Chance of Precip.
Yesterday
High -- | Low -- °F
Precip. -- in
6:58 AM 8:02 PM
Waning Gibbous, 87% visible
Pressure 29.91 in
Visibility 10.0 miles
Clouds Clear
Heat Index 92 °F
Dew Point 59 °F
Humidity 32%
Rainfall 0.00 in
Snow Depth Not available.
UV 9 out of 12
Pollen 11.20 out of 12
Air Quality Not available.
Flu Activity Not available.
METAR KHJH 011935Z AUTO 18016G20KT 10SM CLR 34/15 A2991 RMK AO2 T03360148
Pressure 29.91 in
Visibility 10.0 miles
Clouds Clear
Heat Index 92 °F
Dew Point 59 °F
Humidity 32%
Rainfall 0.00 in
Snow Depth Not available.
UV 9 out of 12
Pollen 11.20 out of 12
Air Quality Not available.
Flu Activity Not available.
METAR KHJH 011935Z AUTO 18016G20KT 10SM CLR 34/15 A2991 RMK AO2 T03360148

10-Day Weather Forecast

×

Almanac

Astronomy

Sep. 01, 2015 Rise Set
Actual Time
Civil Twilight
Nautical Twilight
Astronomical Twilight
Moon
Length of Visible Light
Length of Day
Tomorrow will be .
, % of the Moon is Illuminated

Today's Extremes

State Highs State Lows

Community

WunderPhotos

Upload Photos

1,851,597 photos uploaded!

WunderBlogs® & News

Nearby

Air Quality

  Air Quality AQ Index Pollutant
Not available.

Snow Depth

Station Depth Elevation

Earthquake Activity

City Distance Mag. Time & Date
Minimum magnitude displayed is 2.5.

Coastal Water Temperatures

Place Temperature

Stations

Nearby Weather Stations

Station Location Temp. Windchill Dew Point Humidity Wind Precip. Elev Updated Type